sensor_id;sensor_type;location;lat;lon;timestamp;P1;durP1;ratioP1;P2;durP2;ratioP2
78443;SDS011;67739;52.986;8.894;2023-04-09T00:00:20;43.10;;;22.42;;
78443;SDS011;67739;52.986;8.894;2023-04-09T00:02:46;48.97;;;24.73;;
78443;SDS011;67739;52.986;8.894;2023-04-09T00:05:11;51.53;;;26.40;;
78443;SDS011;67739;52.986;8.894;2023-04-09T00:07:38;47.75;;;24.42;;
78443;SDS011;67739;52.986;8.894;2023-04-09T00:10:03;44.30;;;23.08;;
78443;SDS011;67739;52.986;8.894;2023-04-09T00:12:29;41.05;;;23.05;;
78443;SDS011;67739;52.986;8.894;2023-04-09T00:14:55;43.70;;;22.75;;
78443;SDS011;67739;52.986;8.894;2023-04-09T00:17:21;47.33;;;24.52;;
78443;SDS011;67739;52.986;8.894;2023-04-09T00:19:46;49.45;;;23.63;;
78443;SDS011;67739;52.986;8.894;2023-04-09T00:22:12;44.45;;;22.77;;
78443;SDS011;67739;52.986;8.894;2023-04-09T00:24:37;46.88;;;25.92;;
78443;SDS011;67739;52.986;8.894;2023-04-09T00:27:03;44.97;;;22.65;;
78443;SDS011;67739;52.986;8.894;2023-04-09T00:29:28;41.95;;;21.45;;
78443;SDS011;67739;52.986;8.894;2023-04-09T00:31:53;48.63;;;25.90;;
78443;SDS011;67739;52.986;8.894;2023-04-09T00:34:19;43.10;;;22.55;;
78443;SDS011;67739;52.986;8.894;2023-04-09T00:36:44;45.17;;;22.58;;
78443;SDS011;67739;52.986;8.894;2023-04-09T00:39:10;46.67;;;23.63;;
78443;SDS011;67739;52.986;8.894;2023-04-09T00:41:35;42.30;;;24.17;;
78443;SDS011;67739;52.986;8.894;2023-04-09T00:44:00;41.50;;;21.60;;
78443;SDS011;67739;52.986;8.894;2023-04-09T00:46:26;46.53;;;22.38;;
78443;SDS011;67739;52.986;8.894;2023-04-09T00:48:51;37.75;;;21.52;;
78443;SDS011;67739;52.986;8.894;2023-04-09T00:51:17;39.70;;;21.67;;
78443;SDS011;67739;52.986;8.894;2023-04-09T00:53:42;38.63;;;21.83;;
78443;SDS011;67739;52.986;8.894;2023-04-09T00:56:08;38.00;;;21.73;;
78443;SDS011;67739;52.986;8.894;2023-04-09T00:58:35;38.10;;;21.63;;
78443;SDS011;67739;52.986;8.894;2023-04-09T01:01:01;42.70;;;22.23;;
78443;SDS011;67739;52.986;8.894;2023-04-09T01:03:26;40.17;;;20.00;;
78443;SDS011;67739;52.986;8.894;2023-04-09T01:14:20;43.60;;;22.00;;
78443;SDS011;67739;52.986;8.894;2023-04-09T01:17:04;36.15;;;20.27;;
78443;SDS011;67739;52.986;8.894;2023-04-09T01:22:20;41.40;;;24.13;;
78443;SDS011;67739;52.986;8.894;2023-04-09T01:30:39;37.15;;;18.67;;
78443;SDS011;67739;52.986;8.894;2023-04-09T01:33:08;33.42;;;19.60;;
78443;SDS011;67739;52.986;8.894;2023-04-09T01:35:36;35.78;;;19.75;;
78443;SDS011;67739;52.986;8.894;2023-04-09T01:38:01;37.38;;;18.92;;
78443;SDS011;67739;52.986;8.894;2023-04-09T01:40:28;38.38;;;20.05;;
78443;SDS011;67739;52.986;8.894;2023-04-09T01:42:54;35.22;;;19.40;;
78443;SDS011;67739;52.986;8.894;2023-04-09T01:45:22;33.67;;;17.10;;
78443;SDS011;67739;52.986;8.894;2023-04-09T01:47:47;33.88;;;17.70;;
78443;SDS011;67739;52.986;8.894;2023-04-09T01:50:13;35.47;;;18.38;;
78443;SDS011;67739;52.986;8.894;2023-04-09T01:52:39;32.05;;;17.40;;
78443;SDS011;67739;52.986;8.894;2023-04-09T01:55:05;36.20;;;17.77;;
78443;SDS011;67739;52.986;8.894;2023-04-09T01:57:31;34.78;;;18.90;;
78443;SDS011;67739;52.986;8.894;2023-04-09T01:59:56;36.40;;;19.45;;
78443;SDS011;67739;52.986;8.894;2023-04-09T02:02:27;36.92;;;16.33;;
78443;SDS011;67739;52.986;8.894;2023-04-09T02:05:01;29.08;;;16.85;;
78443;SDS011;67739;52.986;8.894;2023-04-09T02:07:38;32.22;;;17.27;;
78443;SDS011;67739;52.986;8.894;2023-04-09T02:10:08;32.08;;;17.42;;
78443;SDS011;67739;52.986;8.894;2023-04-09T02:12:36;32.08;;;18.73;;
78443;SDS011;67739;52.986;8.894;2023-04-09T02:15:04;37.67;;;18.65;;
78443;SDS011;67739;52.986;8.894;2023-04-09T02:17:31;35.25;;;18.52;;
78443;SDS011;67739;52.986;8.894;2023-04-09T02:19:56;32.97;;;16.88;;
78443;SDS011;67739;52.986;8.894;2023-04-09T02:22:22;33.78;;;16.88;;
78443;SDS011;67739;52.986;8.894;2023-04-09T02:24:47;32.10;;;15.20;;
78443;SDS011;67739;52.986;8.894;2023-04-09T02:27:12;29.23;;;15.70;;
78443;SDS011;67739;52.986;8.894;2023-04-09T02:29:38;30.02;;;15.23;;
78443;SDS011;67739;52.986;8.894;2023-04-09T02:32:04;29.15;;;14.57;;
78443;SDS011;67739;52.986;8.894;2023-04-09T02:34:30;27.80;;;15.85;;
78443;SDS011;67739;52.986;8.894;2023-04-09T02:36:55;31.02;;;15.95;;
78443;SDS011;67739;52.986;8.894;2023-04-09T02:39:21;31.92;;;17.13;;
78443;SDS011;67739;52.986;8.894;2023-04-09T02:41:46;31.85;;;16.05;;
78443;SDS011;67739;52.986;8.894;2023-04-09T02:44:11;29.23;;;16.25;;
78443;SDS011;67739;52.986;8.894;2023-04-09T02:46:37;31.73;;;18.75;;
78443;SDS011;67739;52.986;8.894;2023-04-09T02:49:03;31.55;;;16.83;;
78443;SDS011;67739;52.986;8.894;2023-04-09T02:51:29;31.58;;;16.42;;
78443;SDS011;67739;52.986;8.894;2023-04-09T02:53:54;31.80;;;15.23;;
78443;SDS011;67739;52.986;8.894;2023-04-09T02:56:19;31.92;;;14.40;;
78443;SDS011;67739;52.986;8.894;2023-04-09T02:58:45;26.63;;;13.60;;
78443;SDS011;67739;52.986;8.894;2023-04-09T03:01:13;30.27;;;15.38;;
78443;SDS011;67739;52.986;8.894;2023-04-09T03:03:38;30.67;;;14.52;;
78443;SDS011;67739;52.986;8.894;2023-04-09T03:06:06;30.15;;;15.18;;
78443;SDS011;67739;52.986;8.894;2023-04-09T03:08:31;32.97;;;15.65;;
78443;SDS011;67739;52.986;8.894;2023-04-09T03:10:56;31.27;;;13.65;;
78443;SDS011;67739;52.986;8.894;2023-04-09T03:13:22;29.15;;;15.13;;
78443;SDS011;67739;52.986;8.894;2023-04-09T03:15:50;33.58;;;14.70;;
78443;SDS011;67739;52.986;8.894;2023-04-09T03:18:17;30.50;;;15.30;;
78443;SDS011;67739;52.986;8.894;2023-04-09T03:20:42;34.85;;;16.85;;
78443;SDS011;67739;52.986;8.894;2023-04-09T03:23:08;31.17;;;14.30;;
78443;SDS011;67739;52.986;8.894;2023-04-09T03:25:34;26.10;;;16.02;;
78443;SDS011;67739;52.986;8.894;2023-04-09T03:28:00;27.50;;;14.15;;
78443;SDS011;67739;52.986;8.894;2023-04-09T03:30:25;29.25;;;14.98;;
78443;SDS011;67739;52.986;8.894;2023-04-09T03:32:50;33.08;;;13.63;;
78443;SDS011;67739;52.986;8.894;2023-04-09T03:35:16;27.73;;;13.50;;
78443;SDS011;67739;52.986;8.894;2023-04-09T03:37:41;26.23;;;14.70;;
78443;SDS011;67739;52.986;8.894;2023-04-09T03:40:06;27.55;;;14.32;;
78443;SDS011;67739;52.986;8.894;2023-04-09T03:42:32;22.52;;;12.27;;
78443;SDS011;67739;52.986;8.894;2023-04-09T03:44:59;27.73;;;13.55;;
78443;SDS011;67739;52.986;8.894;2023-04-09T03:47:24;23.35;;;12.73;;
78443;SDS011;67739;52.986;8.894;2023-04-09T03:49:49;25.08;;;11.95;;
78443;SDS011;67739;52.986;8.894;2023-04-09T03:52:15;22.52;;;12.10;;
78443;SDS011;67739;52.986;8.894;2023-04-09T03:54:40;27.48;;;12.15;;
78443;SDS011;67739;52.986;8.894;2023-04-09T03:57:07;21.73;;;12.15;;
78443;SDS011;67739;52.986;8.894;2023-04-09T03:59:32;26.33;;;14.55;;
78443;SDS011;67739;52.986;8.894;2023-04-09T04:01:58;29.55;;;14.35;;
78443;SDS011;67739;52.986;8.894;2023-04-09T04:04:23;24.73;;;12.50;;
78443;SDS011;67739;52.986;8.894;2023-04-09T04:06:48;24.75;;;11.40;;
78443;SDS011;67739;52.986;8.894;2023-04-09T04:09:14;24.48;;;11.52;;
78443;SDS011;67739;52.986;8.894;2023-04-09T04:11:39;27.80;;;13.63;;
78443;SDS011;67739;52.986;8.894;2023-04-09T04:14:04;25.08;;;11.93;;
78443;SDS011;67739;52.986;8.894;2023-04-09T04:16:30;24.77;;;12.73;;
78443;SDS011;67739;52.986;8.894;2023-04-09T04:18:56;22.58;;;11.00;;
78443;SDS011;67739;52.986;8.894;2023-04-09T04:21:21;23.08;;;11.48;;
78443;SDS011;67739;52.986;8.894;2023-04-09T04:23:47;24.73;;;11.82;;
78443;SDS011;67739;52.986;8.894;2023-04-09T04:26:12;22.58;;;10.80;;
78443;SDS011;67739;52.986;8.894;2023-04-09T04:28:37;27.17;;;11.93;;
78443;SDS011;67739;52.986;8.894;2023-04-09T04:31:09;30.38;;;14.52;;
78443;SDS011;67739;52.986;8.894;2023-04-09T04:33:36;24.92;;;12.85;;
78443;SDS011;67739;52.986;8.894;2023-04-09T04:36:04;23.95;;;12.10;;
78443;SDS011;67739;52.986;8.894;2023-04-09T04:38:30;28.02;;;13.52;;
78443;SDS011;67739;52.986;8.894;2023-04-09T04:40:56;26.42;;;15.73;;
78443;SDS011;67739;52.986;8.894;2023-04-09T04:43:21;27.15;;;12.90;;
78443;SDS011;67739;52.986;8.894;2023-04-09T04:45:46;27.42;;;12.88;;
78443;SDS011;67739;52.986;8.894;2023-04-09T04:48:12;25.50;;;11.57;;
78443;SDS011;67739;52.986;8.894;2023-04-09T04:50:37;24.70;;;14.35;;
78443;SDS011;67739;52.986;8.894;2023-04-09T04:53:02;25.20;;;12.75;;
78443;SDS011;67739;52.986;8.894;2023-04-09T04:55:28;32.15;;;14.55;;
78443;SDS011;67739;52.986;8.894;2023-04-09T04:57:53;24.30;;;12.98;;
78443;SDS011;67739;52.986;8.894;2023-04-09T05:00:18;28.40;;;12.23;;
78443;SDS011;67739;52.986;8.894;2023-04-09T05:02:44;24.48;;;13.05;;
78443;SDS011;67739;52.986;8.894;2023-04-09T05:05:09;25.20;;;12.90;;
78443;SDS011;67739;52.986;8.894;2023-04-09T05:07:35;29.45;;;12.20;;
78443;SDS011;67739;52.986;8.894;2023-04-09T05:10:00;27.73;;;13.00;;
78443;SDS011;67739;52.986;8.894;2023-04-09T05:12:25;27.50;;;10.98;;
78443;SDS011;67739;52.986;8.894;2023-04-09T05:14:51;22.80;;;11.73;;
78443;SDS011;67739;52.986;8.894;2023-04-09T05:17:16;22.50;;;11.85;;
78443;SDS011;67739;52.986;8.894;2023-04-09T05:19:41;28.13;;;13.95;;
78443;SDS011;67739;52.986;8.894;2023-04-09T05:22:07;23.40;;;11.15;;
78443;SDS011;67739;52.986;8.894;2023-04-09T05:24:32;29.35;;;12.40;;
78443;SDS011;67739;52.986;8.894;2023-04-09T05:26:57;30.10;;;13.27;;
78443;SDS011;67739;52.986;8.894;2023-04-09T05:29:23;33.53;;;13.95;;
78443;SDS011;67739;52.986;8.894;2023-04-09T05:31:48;30.83;;;13.43;;
78443;SDS011;67739;52.986;8.894;2023-04-09T05:34:14;35.35;;;15.13;;
78443;SDS011;67739;52.986;8.894;2023-04-09T05:36:39;29.42;;;13.30;;
78443;SDS011;67739;52.986;8.894;2023-04-09T05:39:05;33.35;;;14.35;;
78443;SDS011;67739;52.986;8.894;2023-04-09T05:41:30;36.65;;;17.45;;
78443;SDS011;67739;52.986;8.894;2023-04-09T05:43:57;33.60;;;15.80;;
78443;SDS011;67739;52.986;8.894;2023-04-09T05:46:22;34.22;;;17.67;;
78443;SDS011;67739;52.986;8.894;2023-04-09T05:48:48;27.27;;;15.57;;
78443;SDS011;67739;52.986;8.894;2023-04-09T05:51:13;36.17;;;16.50;;
78443;SDS011;67739;52.986;8.894;2023-04-09T05:53:39;29.55;;;14.45;;
78443;SDS011;67739;52.986;8.894;2023-04-09T05:56:14;23.55;;;11.73;;
78443;SDS011;67739;52.986;8.894;2023-04-09T05:58:40;30.33;;;15.30;;
78443;SDS011;67739;52.986;8.894;2023-04-09T06:01:05;30.35;;;15.10;;
78443;SDS011;67739;52.986;8.894;2023-04-09T06:03:30;31.20;;;14.93;;
78443;SDS011;67739;52.986;8.894;2023-04-09T06:05:56;31.50;;;14.77;;
78443;SDS011;67739;52.986;8.894;2023-04-09T06:08:21;25.58;;;14.25;;
78443;SDS011;67739;52.986;8.894;2023-04-09T06:10:46;27.55;;;13.70;;
78443;SDS011;67739;52.986;8.894;2023-04-09T06:13:12;28.90;;;14.70;;
78443;SDS011;67739;52.986;8.894;2023-04-09T06:15:37;24.35;;;12.00;;
78443;SDS011;67739;52.986;8.894;2023-04-09T06:18:03;25.92;;;13.98;;
78443;SDS011;67739;52.986;8.894;2023-04-09T06:20:28;37.00;;;16.30;;
78443;SDS011;67739;52.986;8.894;2023-04-09T06:22:54;35.00;;;16.08;;
78443;SDS011;67739;52.986;8.894;2023-04-09T06:25:19;33.35;;;17.88;;
78443;SDS011;67739;52.986;8.894;2023-04-09T06:27:45;34.70;;;18.90;;
78443;SDS011;67739;52.986;8.894;2023-04-09T06:30:11;35.13;;;16.08;;
78443;SDS011;67739;52.986;8.894;2023-04-09T06:32:36;35.75;;;19.70;;
78443;SDS011;67739;52.986;8.894;2023-04-09T06:35:02;31.52;;;17.90;;
78443;SDS011;67739;52.986;8.894;2023-04-09T06:37:27;38.00;;;19.58;;
78443;SDS011;67739;52.986;8.894;2023-04-09T06:39:53;33.67;;;18.15;;
78443;SDS011;67739;52.986;8.894;2023-04-09T06:42:18;30.80;;;16.13;;
78443;SDS011;67739;52.986;8.894;2023-04-09T06:44:43;38.85;;;18.10;;
78443;SDS011;67739;52.986;8.894;2023-04-09T06:47:09;31.45;;;15.10;;
78443;SDS011;67739;52.986;8.894;2023-04-09T06:49:35;28.83;;;16.48;;
78443;SDS011;67739;52.986;8.894;2023-04-09T06:52:00;30.20;;;14.05;;
78443;SDS011;67739;52.986;8.894;2023-04-09T06:54:26;30.63;;;15.27;;
78443;SDS011;67739;52.986;8.894;2023-04-09T06:56:51;28.48;;;16.05;;
78443;SDS011;67739;52.986;8.894;2023-04-09T06:59:16;31.02;;;16.50;;
78443;SDS011;67739;52.986;8.894;2023-04-09T07:01:42;27.45;;;15.43;;
78443;SDS011;67739;52.986;8.894;2023-04-09T07:04:07;34.10;;;16.65;;
78443;SDS011;67739;52.986;8.894;2023-04-09T07:06:33;28.50;;;14.57;;
78443;SDS011;67739;52.986;8.894;2023-04-09T07:08:58;26.30;;;15.10;;
78443;SDS011;67739;52.986;8.894;2023-04-09T07:11:23;25.85;;;14.10;;
78443;SDS011;67739;52.986;8.894;2023-04-09T07:13:49;31.30;;;15.05;;
78443;SDS011;67739;52.986;8.894;2023-04-09T07:16:14;27.08;;;13.85;;
78443;SDS011;67739;52.986;8.894;2023-04-09T07:18:40;25.20;;;14.32;;
78443;SDS011;67739;52.986;8.894;2023-04-09T07:21:05;27.38;;;14.20;;
78443;SDS011;67739;52.986;8.894;2023-04-09T07:23:33;23.98;;;13.38;;
78443;SDS011;67739;52.986;8.894;2023-04-09T07:26:03;22.90;;;12.40;;
78443;SDS011;67739;52.986;8.894;2023-04-09T07:28:29;22.65;;;12.30;;
78443;SDS011;67739;52.986;8.894;2023-04-09T07:30:55;24.17;;;13.32;;
78443;SDS011;67739;52.986;8.894;2023-04-09T07:33:20;25.10;;;12.85;;
78443;SDS011;67739;52.986;8.894;2023-04-09T07:35:46;22.30;;;12.75;;
78443;SDS011;67739;52.986;8.894;2023-04-09T07:38:11;22.60;;;13.02;;
78443;SDS011;67739;52.986;8.894;2023-04-09T07:40:37;19.70;;;12.60;;
78443;SDS011;67739;52.986;8.894;2023-04-09T07:43:02;25.05;;;12.60;;
78443;SDS011;67739;52.986;8.894;2023-04-09T07:45:28;22.30;;;11.52;;
78443;SDS011;67739;52.986;8.894;2023-04-09T07:47:54;22.38;;;12.50;;
78443;SDS011;67739;52.986;8.894;2023-04-09T07:50:19;21.98;;;11.25;;
78443;SDS011;67739;52.986;8.894;2023-04-09T07:52:45;21.60;;;11.80;;
78443;SDS011;67739;52.986;8.894;2023-04-09T07:55:10;23.15;;;11.32;;
78443;SDS011;67739;52.986;8.894;2023-04-09T07:57:35;20.75;;;11.63;;
78443;SDS011;67739;52.986;8.894;2023-04-09T08:00:01;26.13;;;12.85;;
78443;SDS011;67739;52.986;8.894;2023-04-09T08:02:27;23.40;;;11.80;;
78443;SDS011;67739;52.986;8.894;2023-04-09T08:04:53;24.40;;;12.00;;
78443;SDS011;67739;52.986;8.894;2023-04-09T08:07:18;24.05;;;12.63;;
78443;SDS011;67739;52.986;8.894;2023-04-09T08:09:43;21.33;;;10.77;;
78443;SDS011;67739;52.986;8.894;2023-04-09T08:12:09;24.17;;;12.80;;
78443;SDS011;67739;52.986;8.894;2023-04-09T08:14:35;22.30;;;11.23;;
78443;SDS011;67739;52.986;8.894;2023-04-09T08:17:00;23.17;;;11.35;;
78443;SDS011;67739;52.986;8.894;2023-04-09T08:19:26;21.20;;;11.38;;
78443;SDS011;67739;52.986;8.894;2023-04-09T08:21:51;22.13;;;12.30;;
78443;SDS011;67739;52.986;8.894;2023-04-09T08:24:16;23.23;;;13.68;;
78443;SDS011;67739;52.986;8.894;2023-04-09T08:26:42;21.85;;;13.10;;
78443;SDS011;67739;52.986;8.894;2023-04-09T08:29:09;20.55;;;10.45;;
78443;SDS011;67739;52.986;8.894;2023-04-09T08:31:36;24.80;;;13.05;;
78443;SDS011;67739;52.986;8.894;2023-04-09T08:34:01;18.27;;;10.55;;
78443;SDS011;67739;52.986;8.894;2023-04-09T08:36:27;23.80;;;12.25;;
78443;SDS011;67739;52.986;8.894;2023-04-09T08:38:52;21.55;;;12.07;;
78443;SDS011;67739;52.986;8.894;2023-04-09T08:41:20;20.60;;;11.13;;
78443;SDS011;67739;52.986;8.894;2023-04-09T08:43:49;23.75;;;12.63;;
78443;SDS011;67739;52.986;8.894;2023-04-09T08:46:16;21.70;;;11.50;;
78443;SDS011;67739;52.986;8.894;2023-04-09T08:48:43;21.77;;;12.43;;
78443;SDS011;67739;52.986;8.894;2023-04-09T08:51:11;22.63;;;12.40;;
78443;SDS011;67739;52.986;8.894;2023-04-09T08:53:38;22.63;;;12.25;;
78443;SDS011;67739;52.986;8.894;2023-04-09T08:56:07;21.45;;;12.27;;
78443;SDS011;67739;52.986;8.894;2023-04-09T08:58:32;21.80;;;11.95;;
78443;SDS011;67739;52.986;8.894;2023-04-09T09:00:58;22.38;;;12.88;;
78443;SDS011;67739;52.986;8.894;2023-04-09T09:03:23;21.33;;;12.27;;
78443;SDS011;67739;52.986;8.894;2023-04-09T09:05:49;21.55;;;11.25;;
78443;SDS011;67739;52.986;8.894;2023-04-09T09:08:23;24.58;;;13.18;;
78443;SDS011;67739;52.986;8.894;2023-04-09T09:10:50;21.30;;;12.55;;
78443;SDS011;67739;52.986;8.894;2023-04-09T09:13:23;21.63;;;12.75;;
78443;SDS011;67739;52.986;8.894;2023-04-09T09:15:51;20.33;;;11.32;;
78443;SDS011;67739;52.986;8.894;2023-04-09T09:18:38;23.17;;;12.57;;
78443;SDS011;67739;52.986;8.894;2023-04-09T09:21:09;21.52;;;12.77;;
78443;SDS011;67739;52.986;8.894;2023-04-09T09:23:35;23.17;;;12.20;;
78443;SDS011;67739;52.986;8.894;2023-04-09T09:26:09;23.67;;;12.60;;
78443;SDS011;67739;52.986;8.894;2023-04-09T09:28:38;21.23;;;12.68;;
78443;SDS011;67739;52.986;8.894;2023-04-09T09:31:09;21.77;;;12.60;;
78443;SDS011;67739;52.986;8.894;2023-04-09T09:33:36;22.00;;;12.30;;
78443;SDS011;67739;52.986;8.894;2023-04-09T09:36:02;21.70;;;13.48;;
78443;SDS011;67739;52.986;8.894;2023-04-09T09:38:28;22.40;;;13.30;;
78443;SDS011;67739;52.986;8.894;2023-04-09T09:40:54;21.65;;;12.40;;
78443;SDS011;67739;52.986;8.894;2023-04-09T09:43:20;21.95;;;13.15;;
78443;SDS011;67739;52.986;8.894;2023-04-09T09:45:45;20.95;;;13.18;;
78443;SDS011;67739;52.986;8.894;2023-04-09T09:48:12;21.63;;;12.27;;
78443;SDS011;67739;52.986;8.894;2023-04-09T09:50:38;22.05;;;11.88;;
78443;SDS011;67739;52.986;8.894;2023-04-09T09:53:08;18.75;;;10.98;;
78443;SDS011;67739;52.986;8.894;2023-04-09T09:55:38;20.67;;;13.68;;
78443;SDS011;67739;52.986;8.894;2023-04-09T09:58:27;22.33;;;12.80;;
78443;SDS011;67739;52.986;8.894;2023-04-09T10:01:01;19.80;;;12.27;;
78443;SDS011;67739;52.986;8.894;2023-04-09T10:03:32;22.33;;;12.43;;
78443;SDS011;67739;52.986;8.894;2023-04-09T10:06:01;22.08;;;13.15;;
78443;SDS011;67739;52.986;8.894;2023-04-09T10:08:28;24.48;;;12.82;;
78443;SDS011;67739;52.986;8.894;2023-04-09T10:10:58;24.00;;;14.68;;
78443;SDS011;67739;52.986;8.894;2023-04-09T10:13:25;22.77;;;13.10;;
78443;SDS011;67739;52.986;8.894;2023-04-09T10:16:12;22.38;;;12.68;;
78443;SDS011;67739;52.986;8.894;2023-04-09T10:18:38;22.02;;;12.95;;
78443;SDS011;67739;52.986;8.894;2023-04-09T10:21:18;21.05;;;12.57;;
78443;SDS011;67739;52.986;8.894;2023-04-09T10:24:02;20.48;;;12.80;;
78443;SDS011;67739;52.986;8.894;2023-04-09T10:26:33;24.13;;;13.55;;
78443;SDS011;67739;52.986;8.894;2023-04-09T10:29:06;20.70;;;13.52;;
78443;SDS011;67739;52.986;8.894;2023-04-09T10:34:13;23.20;;;12.32;;
78443;SDS011;67739;52.986;8.894;2023-04-09T10:36:48;24.45;;;13.90;;
78443;SDS011;67739;52.986;8.894;2023-04-09T10:39:17;22.65;;;12.93;;
78443;SDS011;67739;52.986;8.894;2023-04-09T10:41:42;22.58;;;12.23;;
78443;SDS011;67739;52.986;8.894;2023-04-09T10:44:26;19.05;;;12.07;;
78443;SDS011;67739;52.986;8.894;2023-04-09T10:46:52;22.77;;;12.63;;
78443;SDS011;67739;52.986;8.894;2023-04-09T10:49:19;22.00;;;12.75;;
78443;SDS011;67739;52.986;8.894;2023-04-09T10:52:02;19.40;;;12.00;;
78443;SDS011;67739;52.986;8.894;2023-04-09T10:59:34;19.15;;;11.15;;
78443;SDS011;67739;52.986;8.894;2023-04-09T11:02:01;23.10;;;12.18;;
78443;SDS011;67739;52.986;8.894;2023-04-09T11:07:17;20.60;;;12.80;;
78443;SDS011;67739;52.986;8.894;2023-04-09T11:09:46;16.02;;;9.85;;
78443;SDS011;67739;52.986;8.894;2023-04-09T11:12:11;18.58;;;11.75;;
78443;SDS011;67739;52.986;8.894;2023-04-09T11:14:37;20.83;;;12.52;;
78443;SDS011;67739;52.986;8.894;2023-04-09T11:17:02;19.83;;;12.07;;
78443;SDS011;67739;52.986;8.894;2023-04-09T11:19:28;17.88;;;9.75;;
78443;SDS011;67739;52.986;8.894;2023-04-09T11:21:53;18.63;;;10.43;;
78443;SDS011;67739;52.986;8.894;2023-04-09T11:24:20;17.90;;;10.35;;
78443;SDS011;67739;52.986;8.894;2023-04-09T11:26:46;22.75;;;13.20;;
78443;SDS011;67739;52.986;8.894;2023-04-09T11:29:13;22.77;;;13.82;;
78443;SDS011;67739;52.986;8.894;2023-04-09T11:31:38;19.20;;;11.95;;
78443;SDS011;67739;52.986;8.894;2023-04-09T11:34:10;19.08;;;10.88;;
78443;SDS011;67739;52.986;8.894;2023-04-09T11:36:39;19.63;;;12.10;;
78443;SDS011;67739;52.986;8.894;2023-04-09T11:39:04;18.25;;;11.55;;
78443;SDS011;67739;52.986;8.894;2023-04-09T11:41:34;17.60;;;10.52;;
78443;SDS011;67739;52.986;8.894;2023-04-09T11:44:01;17.42;;;10.95;;
78443;SDS011;67739;52.986;8.894;2023-04-09T11:46:28;15.15;;;10.07;;
78443;SDS011;67739;52.986;8.894;2023-04-09T11:48:55;17.27;;;10.05;;
78443;SDS011;67739;52.986;8.894;2023-04-09T11:51:21;17.63;;;10.80;;
78443;SDS011;67739;52.986;8.894;2023-04-09T11:53:47;16.90;;;9.95;;
78443;SDS011;67739;52.986;8.894;2023-04-09T11:56:14;16.38;;;9.88;;
78443;SDS011;67739;52.986;8.894;2023-04-09T11:58:43;17.98;;;10.80;;
78443;SDS011;67739;52.986;8.894;2023-04-09T12:01:10;15.75;;;9.05;;
78443;SDS011;67739;52.986;8.894;2023-04-09T12:03:36;16.55;;;9.95;;
78443;SDS011;67739;52.986;8.894;2023-04-09T12:06:02;18.90;;;11.75;;
78443;SDS011;67739;52.986;8.894;2023-04-09T12:08:29;19.67;;;12.35;;
78443;SDS011;67739;52.986;8.894;2023-04-09T12:10:55;18.45;;;10.95;;
78443;SDS011;67739;52.986;8.894;2023-04-09T12:13:20;18.35;;;10.32;;
78443;SDS011;67739;52.986;8.894;2023-04-09T12:15:47;16.90;;;10.50;;
78443;SDS011;67739;52.986;8.894;2023-04-09T12:18:13;14.85;;;9.00;;
78443;SDS011;67739;52.986;8.894;2023-04-09T12:20:39;14.07;;;9.13;;
78443;SDS011;67739;52.986;8.894;2023-04-09T12:23:09;17.45;;;9.20;;
78443;SDS011;67739;52.986;8.894;2023-04-09T12:25:36;16.30;;;9.90;;
78443;SDS011;67739;52.986;8.894;2023-04-09T12:28:03;15.68;;;8.88;;
78443;SDS011;67739;52.986;8.894;2023-04-09T12:30:30;15.07;;;9.00;;
78443;SDS011;67739;52.986;8.894;2023-04-09T12:32:56;15.38;;;8.80;;
78443;SDS011;67739;52.986;8.894;2023-04-09T12:35:22;16.08;;;9.55;;
78443;SDS011;67739;52.986;8.894;2023-04-09T12:37:47;15.48;;;8.73;;
78443;SDS011;67739;52.986;8.894;2023-04-09T12:40:13;16.42;;;10.05;;
78443;SDS011;67739;52.986;8.894;2023-04-09T12:42:42;15.25;;;9.95;;
78443;SDS011;67739;52.986;8.894;2023-04-09T12:45:08;14.73;;;8.90;;
78443;SDS011;67739;52.986;8.894;2023-04-09T12:47:35;15.48;;;9.20;;
78443;SDS011;67739;52.986;8.894;2023-04-09T12:50:01;15.00;;;8.65;;
78443;SDS011;67739;52.986;8.894;2023-04-09T12:52:28;14.00;;;8.07;;
78443;SDS011;67739;52.986;8.894;2023-04-09T12:54:53;13.13;;;6.82;;
78443;SDS011;67739;52.986;8.894;2023-04-09T12:57:19;13.07;;;8.70;;
78443;SDS011;67739;52.986;8.894;2023-04-09T12:59:44;12.90;;;7.95;;
78443;SDS011;67739;52.986;8.894;2023-04-09T13:02:10;13.95;;;8.05;;
78443;SDS011;67739;52.986;8.894;2023-04-09T13:04:35;12.68;;;7.30;;
78443;SDS011;67739;52.986;8.894;2023-04-09T13:07:01;12.45;;;6.93;;
78443;SDS011;67739;52.986;8.894;2023-04-09T13:09:26;12.48;;;7.72;;
78443;SDS011;67739;52.986;8.894;2023-04-09T13:11:51;14.07;;;8.30;;
78443;SDS011;67739;52.986;8.894;2023-04-09T13:14:17;12.90;;;7.50;;
78443;SDS011;67739;52.986;8.894;2023-04-09T13:16:42;14.70;;;8.65;;
78443;SDS011;67739;52.986;8.894;2023-04-09T13:19:08;13.07;;;7.28;;
78443;SDS011;67739;52.986;8.894;2023-04-09T13:21:34;15.43;;;8.65;;
78443;SDS011;67739;52.986;8.894;2023-04-09T13:23:59;14.75;;;8.43;;
78443;SDS011;67739;52.986;8.894;2023-04-09T13:26:25;14.52;;;8.15;;
78443;SDS011;67739;52.986;8.894;2023-04-09T13:28:51;13.05;;;8.25;;
78443;SDS011;67739;52.986;8.894;2023-04-09T13:31:17;13.65;;;7.75;;
78443;SDS011;67739;52.986;8.894;2023-04-09T13:33:42;14.82;;;8.50;;
78443;SDS011;67739;52.986;8.894;2023-04-09T13:36:08;14.27;;;8.05;;
78443;SDS011;67739;52.986;8.894;2023-04-09T13:38:33;14.63;;;8.43;;
78443;SDS011;67739;52.986;8.894;2023-04-09T13:40:58;14.05;;;8.88;;
78443;SDS011;67739;52.986;8.894;2023-04-09T13:43:24;14.25;;;8.73;;
78443;SDS011;67739;52.986;8.894;2023-04-09T13:45:52;15.48;;;9.20;;
78443;SDS011;67739;52.986;8.894;2023-04-09T13:48:18;15.93;;;9.65;;
78443;SDS011;67739;52.986;8.894;2023-04-09T13:50:44;14.73;;;8.85;;
78443;SDS011;67739;52.986;8.894;2023-04-09T13:53:10;14.18;;;8.70;;
78443;SDS011;67739;52.986;8.894;2023-04-09T13:55:35;16.20;;;10.38;;
78443;SDS011;67739;52.986;8.894;2023-04-09T13:58:00;15.50;;;9.27;;
78443;SDS011;67739;52.986;8.894;2023-04-09T14:00:26;14.95;;;9.10;;
78443;SDS011;67739;52.986;8.894;2023-04-09T14:02:51;14.45;;;8.65;;
78443;SDS011;67739;52.986;8.894;2023-04-09T14:05:16;15.48;;;9.52;;
78443;SDS011;67739;52.986;8.894;2023-04-09T14:07:42;16.10;;;10.02;;
78443;SDS011;67739;52.986;8.894;2023-04-09T14:10:07;13.85;;;8.43;;
78443;SDS011;67739;52.986;8.894;2023-04-09T14:12:33;13.98;;;8.98;;
78443;SDS011;67739;52.986;8.894;2023-04-09T14:14:58;14.48;;;9.07;;
78443;SDS011;67739;52.986;8.894;2023-04-09T14:17:24;15.30;;;8.90;;
78443;SDS011;67739;52.986;8.894;2023-04-09T14:19:50;15.70;;;9.90;;
78443;SDS011;67739;52.986;8.894;2023-04-09T14:22:15;15.80;;;9.68;;
78443;SDS011;67739;52.986;8.894;2023-04-09T14:24:41;14.10;;;9.45;;
78443;SDS011;67739;52.986;8.894;2023-04-09T14:27:06;19.20;;;9.45;;
78443;SDS011;67739;52.986;8.894;2023-04-09T14:29:32;13.00;;;8.15;;
78443;SDS011;67739;52.986;8.894;2023-04-09T14:31:57;16.75;;;10.65;;
78443;SDS011;67739;52.986;8.894;2023-04-09T14:34:24;16.63;;;8.95;;
78443;SDS011;67739;52.986;8.894;2023-04-09T14:36:49;13.75;;;8.50;;
78443;SDS011;67739;52.986;8.894;2023-04-09T14:39:14;14.68;;;9.25;;
78443;SDS011;67739;52.986;8.894;2023-04-09T14:41:40;15.88;;;9.27;;
78443;SDS011;67739;52.986;8.894;2023-04-09T14:44:05;14.02;;;9.18;;
78443;SDS011;67739;52.986;8.894;2023-04-09T14:46:31;14.40;;;9.25;;